createdAt,value
2023-04-18T00:02:45.926Z,11.75
2023-04-18T00:07:48.859Z,10.39
2023-04-18T00:12:51.511Z,13.09
2023-04-18T00:17:56.526Z,13.61
2023-04-18T00:23:00.645Z,11.56
2023-04-18T00:28:03.194Z,13.39
2023-04-18T00:33:06.275Z,12.56
2023-04-18T00:38:08.981Z,11.38
2023-04-18T00:43:14.849Z,13.30
2023-04-18T00:48:18.116Z,11.59
2023-04-18T00:53:20.902Z,13.62
2023-04-18T00:58:24.773Z,11.93
2023-04-18T01:03:27.434Z,13.34
2023-04-18T01:08:30.398Z,12.08
2023-04-18T01:13:33.013Z,12.46
2023-04-18T01:18:35.547Z,12.88
2023-04-18T01:23:38.100Z,11.76
2023-04-18T01:28:41.990Z,13.50
2023-04-18T01:33:44.621Z,11.43
2023-04-18T01:38:47.140Z,13.54
2023-04-18T01:43:49.821Z,11.81
2023-04-18T01:48:52.953Z,12.97
2023-04-18T01:53:55.646Z,12.30
2023-04-18T01:58:58.215Z,12.52
2023-04-18T02:04:00.907Z,12.73
2023-04-18T02:09:03.777Z,12.49
2023-04-18T02:14:06.713Z,12.27
2023-04-18T02:19:09.463Z,12.67
2023-04-18T02:24:12.196Z,12.64
2023-04-18T02:29:15.129Z,12.02
2023-04-18T02:34:17.765Z,13.50
2023-04-18T02:39:21.024Z,11.60
2023-04-18T02:44:23.580Z,13.18
2023-04-18T02:49:26.201Z,11.57
2023-04-18T02:54:28.788Z,13.34
2023-04-18T02:59:31.439Z,11.72
2023-04-18T03:04:34.086Z,13.21
2023-04-18T03:09:36.801Z,11.49
2023-04-18T03:14:39.448Z,13.34
2023-04-18T03:19:42.033Z,11.43
2023-04-18T03:24:44.684Z,12.59
2023-04-18T03:29:47.342Z,12.79
2023-04-18T03:34:51.403Z,11.75
2023-04-18T03:39:54.600Z,13.26
2023-04-18T03:44:57.173Z,11.30
2023-04-18T03:49:59.766Z,13.24
2023-04-18T03:55:02.344Z,11.65
2023-04-18T04:00:08.101Z,13.04
2023-04-18T04:05:10.918Z,12.09
2023-04-18T04:10:13.780Z,12.52
2023-04-18T04:15:16.534Z,13.31
2023-04-18T04:20:24.104Z,11.94
2023-04-18T04:25:28.898Z,12.90
2023-04-18T04:30:31.872Z,14.47
2023-04-18T04:35:36.708Z,12.48
2023-04-18T04:40:39.249Z,12.18
2023-04-18T04:45:43.465Z,15.04
2023-04-18T04:50:53.801Z,13.74
2023-04-18T04:55:57.832Z,12.09
2023-04-18T05:01:00.652Z,13.52
2023-04-18T05:06:03.724Z,13.73
2023-04-18T05:11:06.306Z,12.50
2023-04-18T05:16:09.389Z,13.74
2023-04-18T05:21:12.088Z,12.35
2023-04-18T05:26:14.742Z,14.10
2023-04-18T05:31:17.482Z,12.22
2023-04-18T05:36:20.676Z,13.94
2023-04-18T05:41:23.270Z,12.76
2023-04-18T05:46:25.895Z,13.56
2023-04-18T05:51:28.673Z,13.29
2023-04-18T05:56:31.380Z,12.77
2023-04-18T06:01:34.502Z,15.24
2023-04-18T06:06:37.122Z,13.31
2023-04-18T06:11:40.044Z,13.06
2023-04-18T06:16:42.858Z,14.20
2023-04-18T06:21:45.773Z,13.08
2023-04-18T06:26:48.587Z,13.23
2023-04-18T06:31:52.215Z,13.87
2023-04-18T06:36:55.803Z,14.32
2023-04-18T06:41:58.681Z,15.96
2023-04-18T06:47:01.355Z,17.96
2023-04-18T06:52:03.988Z,19.61
2023-04-18T06:57:06.599Z,20.85
2023-04-18T07:02:09.229Z,20.68
2023-04-18T07:07:11.861Z,19.97
2023-04-18T07:12:14.487Z,20.08
2023-04-18T07:17:18.028Z,20.55
2023-04-18T07:22:20.666Z,20.74
2023-04-18T07:27:23.207Z,20.71
2023-04-18T07:32:26.004Z,21.16
2023-04-18T07:37:28.960Z,21.60
2023-04-18T07:42:31.618Z,21.56
2023-04-18T07:47:34.296Z,21.81
2023-04-18T07:52:38.207Z,21.88
2023-04-18T07:57:50.226Z,21.72
2023-04-18T08:02:52.922Z,21.66
2023-04-18T08:07:55.679Z,21.67
2023-04-18T08:12:58.413Z,22.05
2023-04-18T08:18:01.621Z,21.90
2023-04-18T08:23:08.424Z,22.01
2023-04-18T08:28:13.430Z,21.74
2023-04-18T08:33:16.220Z,20.37
2023-04-18T08:38:19.263Z,19.19
2023-04-18T08:43:22.007Z,19.14
2023-04-18T08:48:24.861Z,19.56
2023-04-18T08:53:27.567Z,19.71
2023-04-18T08:58:32.496Z,19.78
2023-04-18T09:03:43.179Z,20.54
2023-04-18T09:08:58.992Z,21.05
2023-04-18T09:14:02.423Z,21.06
2023-04-18T09:19:11.168Z,20.71
2023-04-18T09:24:26.353Z,20.35
2023-04-18T09:29:49.205Z,20.68
2023-04-18T09:34:58.298Z,20.99
2023-04-18T09:40:15.670Z,21.01
2023-04-18T09:45:18.834Z,20.88
2023-04-18T09:50:21.466Z,20.47
2023-04-18T09:55:24.248Z,20.67
2023-04-18T10:00:30.792Z,20.61
2023-04-18T10:05:41.245Z,20.04
2023-04-18T10:10:43.930Z,19.98
2023-04-18T10:15:47.324Z,20.03
2023-04-18T10:20:49.957Z,20.25
2023-04-18T10:25:52.783Z,20.59
2023-04-18T10:31:04.973Z,20.85
2023-04-18T10:36:11.577Z,20.04
2023-04-18T10:41:23.624Z,18.63
2023-04-18T10:46:32.281Z,17.60
2023-04-18T10:51:35.568Z,17.01
2023-04-18T10:56:39.468Z,16.79
2023-04-18T11:01:47.296Z,16.43
2023-04-18T11:06:53.133Z,16.22
2023-04-18T11:12:10.654Z,16.23
2023-04-18T11:17:19.662Z,16.53
2023-04-18T11:22:22.315Z,16.77
2023-04-18T11:27:26.893Z,17.03
2023-04-18T11:32:29.717Z,17.12
2023-04-18T11:37:32.727Z,16.92
2023-04-18T11:42:37.366Z,16.76
2023-04-18T11:47:42.895Z,16.93
2023-04-18T11:52:51.313Z,16.73
2023-04-18T11:57:59.833Z,16.41
2023-04-18T12:03:05.988Z,16.37
2023-04-18T12:08:18.649Z,16.50
2023-04-18T12:13:31.059Z,16.77
2023-04-18T12:18:33.713Z,16.86
2023-04-18T12:23:40.299Z,16.78
2023-04-18T12:28:46.220Z,16.74
2023-04-18T12:33:50.467Z,16.87
2023-04-18T12:38:53.103Z,16.97
2023-04-18T12:43:55.803Z,16.88
2023-04-18T12:48:58.553Z,16.82
2023-04-18T12:54:01.698Z,16.75
2023-04-18T12:59:04.375Z,16.53
2023-04-18T13:04:12.683Z,16.47
2023-04-18T13:09:16.693Z,16.82
2023-04-18T13:14:19.288Z,17.04
2023-04-18T13:19:24.070Z,16.77
2023-04-18T13:24:27.684Z,16.50
2023-04-18T13:29:30.656Z,16.24
2023-04-18T13:34:44.683Z,16.02
2023-04-18T13:39:47.568Z,15.88
2023-04-18T13:44:50.396Z,15.79
2023-04-18T13:50:12.937Z,15.61
2023-04-18T13:55:16.201Z,15.40
2023-04-18T14:00:20.134Z,15.33
2023-04-18T14:05:22.796Z,15.20
2023-04-18T14:10:25.858Z,15.02
2023-04-18T14:15:28.609Z,14.95
2023-04-18T14:20:34.572Z,15.01
2023-04-18T14:25:37.823Z,15.21
2023-04-18T14:30:40.728Z,15.34
2023-04-18T14:35:43.882Z,15.34
2023-04-18T14:40:46.871Z,15.15
2023-04-18T14:45:49.838Z,14.76
2023-04-18T14:51:02.383Z,14.40
2023-04-18T14:56:05.520Z,14.20
2023-04-18T15:01:08.098Z,14.10
2023-04-18T15:06:11.075Z,14.01
2023-04-18T15:11:13.769Z,13.80
2023-04-18T15:16:16.725Z,13.63
2023-04-18T15:21:19.425Z,13.50
2023-04-18T15:26:22.124Z,13.37
2023-04-18T15:31:24.964Z,13.28
2023-04-18T15:36:28.803Z,13.20
2023-04-18T15:41:36.632Z,13.14
2023-04-18T15:46:39.455Z,13.15
2023-04-18T15:51:42.298Z,13.14
2023-04-18T15:56:45.088Z,13.13
2023-04-18T16:01:47.786Z,13.11
2023-04-18T16:06:50.490Z,13.05
2023-04-18T16:11:53.671Z,12.98
2023-04-18T16:16:57.675Z,12.96
2023-04-18T16:22:00.269Z,12.94
2023-04-18T16:27:02.958Z,12.93
2023-04-18T16:32:06.641Z,12.92
2023-04-18T16:37:09.277Z,12.88
2023-04-18T16:42:14.028Z,12.87
2023-04-18T16:47:18.592Z,12.84
2023-04-18T16:52:22.254Z,14.10
2023-04-18T16:57:24.855Z,14.70
2023-04-18T17:02:28.438Z,13.84
2023-04-18T17:07:31.178Z,13.35
2023-04-18T17:12:33.807Z,14.51
2023-04-18T17:17:36.493Z,15.22
2023-04-18T17:22:40.141Z,14.04
2023-04-18T17:27:43.153Z,13.28
2023-04-18T17:32:45.974Z,13.42
2023-04-18T17:37:52.841Z,15.23
2023-04-18T17:42:55.605Z,13.84
2023-04-18T17:47:59.447Z,12.93
2023-04-18T17:53:03.027Z,14.80
2023-04-18T17:58:05.972Z,14.08
2023-04-18T18:03:13.610Z,12.93
2023-04-18T18:08:17.269Z,14.19
2023-04-18T18:13:19.943Z,14.04
2023-04-18T18:18:23.871Z,12.75
2023-04-18T18:23:27.235Z,14.04
2023-04-18T18:28:29.814Z,13.13
2023-04-18T18:33:32.771Z,12.97
2023-04-18T18:38:36.389Z,14.02
2023-04-18T18:43:39.203Z,12.52
2023-04-18T18:48:42.041Z,13.79
2023-04-18T18:53:46.607Z,13.12
2023-04-18T18:58:49.655Z,11.79
2023-04-18T19:03:52.576Z,13.53
2023-04-18T19:08:55.494Z,12.84
2023-04-18T19:13:58.060Z,11.62
2023-04-18T19:19:00.964Z,12.06
2023-04-18T19:24:03.815Z,13.79
2023-04-18T19:29:07.823Z,12.11
2023-04-18T19:34:10.903Z,11.14
2023-04-18T19:39:14.041Z,11.59
2023-04-18T19:44:16.905Z,12.33
2023-04-18T19:49:19.507Z,11.04
2023-04-18T19:54:22.265Z,10.24
2023-04-18T19:59:24.871Z,9.71
2023-04-18T20:04:27.586Z,9.33
2023-04-18T20:09:30.623Z,9.02
2023-04-18T20:14:33.250Z,8.77
2023-04-18T20:19:36.387Z,8.71
2023-04-18T20:24:39.401Z,11.37
2023-04-18T20:29:42.200Z,10.50
2023-04-18T20:34:46.711Z,9.30
2023-04-18T20:39:49.307Z,8.87
2023-04-18T20:44:54.693Z,11.81
2023-04-18T20:49:57.317Z,10.91
2023-04-18T20:54:59.925Z,9.30
2023-04-18T21:00:02.999Z,8.45
2023-04-18T21:05:06.195Z,9.20
2023-04-18T21:10:09.647Z,10.66
2023-04-18T21:15:12.782Z,9.22
2023-04-18T21:20:15.962Z,8.35
2023-04-18T21:25:20.446Z,7.77
2023-04-18T21:30:23.308Z,8.25
2023-04-18T21:35:25.949Z,11.32
2023-04-18T21:40:30.610Z,10.02
2023-04-18T21:45:33.774Z,8.80
2023-04-18T21:50:36.330Z,7.98
2023-04-18T21:55:38.876Z,9.88
2023-04-18T22:00:41.486Z,9.68
2023-04-18T22:05:44.261Z,8.15
2023-04-18T22:10:50.469Z,8.08
2023-04-18T22:15:53.089Z,9.65
2023-04-18T22:20:56.420Z,8.30
2023-04-18T22:25:59.081Z,7.64
2023-04-18T22:31:01.723Z,10.71
2023-04-18T22:36:05.306Z,10.12
2023-04-18T22:41:07.909Z,8.27
2023-04-18T22:46:10.851Z,7.32
2023-04-18T22:51:18.208Z,9.21
2023-04-18T22:56:21.062Z,9.26
2023-04-18T23:01:23.609Z,7.65
2023-04-18T23:06:27.994Z,9.20
2023-04-18T23:11:30.809Z,8.80
2023-04-18T23:16:33.480Z,7.50
2023-04-18T23:21:36.050Z,10.03
2023-04-18T23:26:38.988Z,9.24
2023-04-18T23:31:41.793Z,7.83
2023-04-18T23:36:44.475Z,9.01
2023-04-18T23:41:47.130Z,9.84
2023-04-18T23:46:49.808Z,7.99
2023-04-18T23:51:52.509Z,7.24
2023-04-18T23:56:55.054Z,10.26
